Spokane International Airport Spokane US
ICAO: KGEG
IATA: GEG
Category: Large
Scheduled Services: Yes

Elevation: 2376 ft
TransAlt. 18000 ft.

Airport Communications:
APP/DEP:123.75
ATIS:124.325
CLNC DEL:127.55
GND:121.9
ARNG:38.75
SEATTLE RDO:122.2
TWR:118.3
UNICOM:122.95

KGEG Zoom In..

If you have problems with the map follow the link
https://www.worldairports.se/pages/airport.php?
ICAO=KGEG

Runways:

(A) RW 03 length 11002 ft width 150 ft
ILS 111.10 / hdg 27

(B) RW 07 length 8199 ft width 150 ft
---- / hdg 72

(C) RW 21 length 11002 ft width 150 ft
ILS 111.10 / hdg 207

(D) RW 25 length 8199 ft width 150 ft
---- / hdg 252

Location; KGEG
Day. 19 / Time. 19.53 Zulu
* Altimeter: 30.43
* Temperature: 02° c. 35.6°f.
* Wind from: 040° Speed 05 kn.
Dewpoint: -06° c.
Visibility: 10 Statute Miles.
Clouds: Few 4000 ft.
Clouds: Few 25000 ft.

KGEG 191953Z 04005KT 10SM FEW040 FEW250 02/M06 A3043 RMK AO2 SLP327 T00171061


Wind From 040°
Speed 05 kn.

 
 
jpsmedia worldairports.se 2020   terms of use